Time;durP1;ratioP1;P1;durP2;ratioP2;P2;SDS_P1;SDS_P2;PMS_P1;PMS_P2;Temp;Humidity;BMP_temperature;BMP_pressure;BME280_temperature;BME280_humidity;BME280_pressure;Samples;Min_cycle;Max_cycle;Signal;HPM_P1;HPM_P2
2023/10/05 00:01:27;;;;;;;4.40;3.30;;;;;;;9.45;100.00;97265.47;5030915;28;103772;-73
2023/10/05 00:03:54;;;;;;;5.50;3.60;;;;;;;9.49;100.00;97266.63;5030237;28;105128;-73
2023/10/05 00:06:24;;;;;;;4.20;3.80;;;;;;;9.40;100.00;97267.16;5032341;28;101872;-73
2023/10/05 00:08:52;;;;;;;3.67;3.30;;;;;;;9.36;100.00;97260.66;4991827;28;102667;-73
2023/10/05 00:11:24;;;;;;;5.53;3.77;;;;;;;9.35;100.00;97257.19;4989608;28;105393;-73
2023/10/05 00:13:56;;;;;;;3.83;3.47;;;;;;;9.41;100.00;97252.84;4990739;28;102163;-74
2023/10/05 00:16:24;;;;;;;8.40;4.07;;;;;;;9.41;100.00;97247.53;4990707;28;105108;-74
2023/10/05 00:18:51;;;;;;;4.37;3.60;;;;;;;9.40;100.00;97256.53;4993496;28;105473;-73
2023/10/05 00:21:20;;;;;;;4.93;3.77;;;;;;;9.41;100.00;97263.44;4990626;28;105175;-73
2023/10/05 00:23:53;;;;;;;5.00;3.63;;;;;;;9.27;100.00;97256.69;4991203;28;102778;-73
2023/10/05 00:26:23;;;;;;;4.00;3.60;;;;;;;9.20;100.00;97250.63;4990674;28;101842;-73
2023/10/05 00:29:04;;;;;;;3.70;3.10;;;;;;;9.20;100.00;97246.13;4992203;28;102936;-73
2023/10/05 00:31:33;;;;;;;4.10;3.67;;;;;;;9.16;100.00;97249.47;4989967;28;105041;-73
2023/10/05 00:34:02;;;;;;;4.33;3.60;;;;;;;8.99;100.00;97249.22;4990503;28;101915;-72
2023/10/05 00:36:34;;;;;;;4.30;3.40;;;;;;;9.09;100.00;97251.34;4991806;28;102934;-72
2023/10/05 00:39:07;;;;;;;4.50;3.33;;;;;;;9.06;100.00;97254.47;4989614;28;105263;-72
2023/10/05 00:41:34;;;;;;;5.93;3.83;;;;;;;8.99;100.00;97256.38;4995284;28;101780;-73
2023/10/05 00:44:04;;;;;;;4.20;3.37;;;;;;;8.70;100.00;97251.72;4989723;28;105289;-73
2023/10/05 00:46:32;;;;;;;4.47;3.20;;;;;;;8.85;100.00;97252.22;4990275;28;101960;-73
2023/10/05 00:49:05;;;;;;;3.30;3.00;;;;;;;8.83;100.00;97249.78;4990289;28;105584;-73
2023/10/05 00:51:36;;;;;;;4.60;3.23;;;;;;;8.89;100.00;97254.19;4989503;28;105600;-73
2023/10/05 00:54:11;;;;;;;4.10;3.37;;;;;;;8.90;100.00;97253.16;4990210;28;102227;-72
2023/10/05 00:56:41;;;;;;;4.90;3.00;;;;;;;8.92;100.00;97253.78;4990115;28;105230;-72
2023/10/05 00:59:20;;;;;;;5.73;3.33;;;;;;;8.84;100.00;97246.09;4990621;28;102815;-73
2023/10/05 01:02:04;;;;;;;5.73;3.47;;;;;;;8.87;100.00;97250.13;4991543;28;101723;-76
2023/10/05 01:04:52;;;;;;;4.27;3.60;;;;;;;8.88;100.00;97252.59;4992844;28;105264;-76
2023/10/05 01:07:27;;;;;;;6.97;3.80;;;;;;;8.94;100.00;97242.94;5005376;28;101832;-76
2023/10/05 01:10:21;;;;;;;4.53;3.53;;;;;;;8.93;100.00;97244.78;5030166;28;105080;-76
2023/10/05 01:12:45;;;;;;;4.10;3.30;;;;;;;8.95;100.00;97253.31;5028982;28;105317;-76
2023/10/05 01:15:19;;;;;;;3.67;3.27;;;;;;;8.96;100.00;97243.53;5029856;28;102326;-76
2023/10/05 01:17:50;;;;;;;3.87;3.00;;;;;;;8.99;100.00;97248.41;5029836;28;105157;-75
2023/10/05 01:20:25;;;;;;;4.30;3.00;;;;;;;8.97;100.00;97239.84;5029018;28;105700;-75
2023/10/05 01:22:55;;;;;;;4.03;3.20;;;;;;;8.99;100.00;97237.81;5029560;28;102175;-75
2023/10/05 01:25:25;;;;;;;4.90;3.30;;;;;;;8.99;100.00;97245.75;5029796;28;104929;-75
2023/10/05 01:27:53;;;;;;;3.47;3.00;;;;;;;9.01;100.00;97247.16;5032499;28;105171;-75
2023/10/05 01:30:21;;;;;;;3.23;2.90;;;;;;;8.92;100.00;97242.34;5029609;28;105089;-75
2023/10/05 01:32:49;;;;;;;3.27;2.97;;;;;;;8.49;100.00;97241.50;5028945;28;105419;-75
2023/10/05 01:35:18;;;;;;;4.20;2.83;;;;;;;8.47;100.00;97243.56;5030960;28;101878;-75
2023/10/05 01:37:51;;;;;;;2.80;2.60;;;;;;;8.50;100.00;97237.84;5029391;28;104882;-76
2023/10/05 01:40:24;;;;;;;3.93;2.80;;;;;;;8.42;100.00;97240.75;5028926;28;105048;-76
2023/10/05 01:42:54;;;;;;;2.97;2.77;;;;;;;8.43;100.00;97231.75;5029261;28;101830;-76
2023/10/05 01:45:24;;;;;;;3.47;2.77;;;;;;;8.32;100.00;97230.63;5029625;28;105389;-73
2023/10/05 01:47:52;;;;;;;3.07;2.70;;;;;;;8.44;100.00;97228.91;5028774;28;105421;-73
2023/10/05 01:50:23;;;;;;;4.07;3.07;;;;;;;8.43;100.00;97221.16;5032758;28;101809;-73
2023/10/05 01:52:56;;;;;;;3.37;3.07;;;;;;;8.43;100.00;97221.16;5028448;28;105793;-73
2023/10/05 01:55:24;;;;;;;3.67;3.00;;;;;;;8.36;100.00;97215.94;5030516;27;101708;-73
2023/10/05 01:57:54;;;;;;;3.87;2.80;;;;;;;8.17;100.00;97214.19;5029249;28;105255;-73
2023/10/05 02:00:23;;;;;;;3.23;2.87;;;;;;;8.13;100.00;97217.50;5028583;28;105105;-73
2023/10/05 02:02:52;;;;;;;3.17;2.63;;;;;;;8.26;100.00;97217.44;5029233;28;101954;-73
2023/10/05 02:05:20;;;;;;;3.10;2.80;;;;;;;8.31;100.00;97233.50;5029125;28;103959;-73
2023/10/05 02:07:49;;;;;;;5.30;3.17;;;;;;;8.21;100.00;97233.16;5027953;28;105448;-73
2023/10/05 02:10:19;;;;;;;3.67;2.80;;;;;;;8.16;100.00;97236.44;5032300;28;101888;-73
2023/10/05 02:12:53;;;;;;;3.40;2.70;;;;;;;8.19;100.00;97235.19;5028345;28;106133;-73
2023/10/05 02:15:28;;;;;;;2.93;2.60;;;;;;;8.21;100.00;97238.47;5029100;28;101931;-73
2023/10/05 02:17:57;;;;;;;3.00;2.60;;;;;;;8.30;100.00;97232.69;5028958;28;105831;-73
2023/10/05 02:20:43;;;;;;;3.37;2.80;;;;;;;8.32;100.00;97235.94;5028258;28;105330;-73
2023/10/05 02:26:00;;;;;;;4.13;2.80;;;;;;;8.22;100.00;97234.78;5025718;28;105522;-73
2023/10/05 02:28:27;;;;;;;3.10;2.80;;;;;;;8.03;100.00;97236.53;5028322;28;105616;-73
2023/10/05 02:31:05;;;;;;;3.13;2.77;;;;;;;8.04;100.00;97237.31;5028818;28;101953;-73
2023/10/05 02:33:32;;;;;;;2.63;2.43;;;;;;;8.08;100.00;97231.38;5030888;28;105242;-73
2023/10/05 02:36:11;;;;;;;3.17;2.60;;;;;;;8.04;100.00;97229.38;5028699;28;101892;-73
2023/10/05 02:38:49;;;;;;;3.87;2.40;;;;;;;8.03;100.00;97231.22;5028739;28;105375;-73
2023/10/05 02:41:23;;;;;;;2.70;2.50;;;;;;;7.98;100.00;97223.13;5028155;28;104969;-73
2023/10/05 02:43:53;;;;;;;4.77;2.80;;;;;;;7.97;100.00;97226.75;5028744;28;101909;-74
2023/10/05 02:46:24;;;;;;;3.87;2.70;;;;;;;7.92;100.00;97226.59;5028700;28;104864;-74
2023/10/05 02:48:53;;;;;;;5.03;2.87;;;;;;;7.95;100.00;97222.69;5027933;28;105054;-73
2023/10/05 02:51:20;;;;;;;3.33;2.67;;;;;;;7.93;100.00;97222.94;5028318;28;101982;-73
2023/10/05 02:53:47;;;;;;;3.17;2.60;;;;;;;7.87;100.00;97220.31;5028392;28;104846;-74
2023/10/05 02:56:20;;;;;;;3.00;2.70;;;;;;;7.67;100.00;97214.31;5031239;28;104063;-74
2023/10/05 02:58:52;;;;;;;3.03;2.57;;;;;;;7.58;100.00;97202.38;5028611;28;104264;-73
2023/10/05 03:01:20;;;;;;;2.60;2.40;;;;;;;7.57;100.00;97198.91;5027728;28;105613;-72
2023/10/05 03:03:50;;;;;;;2.87;2.40;;;;;;;7.56;100.00;97207.88;5028347;28;102172;-72
2023/10/05 03:06:18;;;;;;;2.70;2.33;;;;;;;7.46;100.00;97206.69;5028411;28;104947;-72
2023/10/05 03:08:49;;;;;;;3.33;2.60;;;;;;;7.54;100.00;97206.47;5027604;28;105324;-72
2023/10/05 03:11:18;;;;;;;3.00;2.80;;;;;;;7.56;100.00;97207.88;5028076;28;102179;-73
2023/10/05 03:13:48;;;;;;;2.97;2.77;;;;;;;7.53;100.00;97212.78;5028398;28;105106;-74
2023/10/05 03:16:17;;;;;;;4.37;3.80;;;;;;;7.50;100.00;97223.78;5027630;28;105512;-73
2023/10/05 03:18:49;;;;;;;5.23;3.90;;;;;;;7.39;100.00;97227.91;5031779;28;101840;-73
2023/10/05 03:21:18;;;;;;;5.70;4.63;;;;;;;7.51;100.00;97233.31;5027850;28;105510;-72
2023/10/05 03:23:45;;;;;;;5.53;4.47;;;;;;;7.57;100.00;97220.06;5027992;28;101870;-72
2023/10/05 03:26:16;;;;;;;4.63;4.23;;;;;;;7.59;100.00;97230.47;5027973;28;105641;-72
2023/10/05 03:28:44;;;;;;;7.47;4.77;;;;;;;7.63;100.00;97224.53;5027570;28;105622;-72
2023/10/05 03:31:19;;;;;;;5.47;4.63;;;;;;;7.52;100.00;97232.34;5027957;28;102150;-72
2023/10/05 03:33:51;;;;;;;4.73;4.33;;;;;;;7.45;100.00;97239.47;5028128;28;105251;-73
2023/10/05 03:36:21;;;;;;;8.83;4.80;;;;;;;7.51;100.00;97228.03;5027409;28;105949;-72
2023/10/05 03:38:56;;;;;;;5.50;4.33;;;;;;;7.61;100.00;97236.34;5027906;28;102182;-73
2023/10/05 03:41:27;;;;;;;5.93;4.50;;;;;;;7.68;100.00;97237.16;5030675;28;104968;-75
2023/10/05 03:44:00;;;;;;;4.33;4.00;;;;;;;7.61;100.00;97228.41;5027948;27;101957;-75
2023/10/05 03:46:28;;;;;;;4.73;4.33;;;;;;;7.62;100.00;97233.50;5030965;28;105391;-75
2023/10/05 03:49:00;;;;;;;4.07;3.67;;;;;;;7.60;100.00;97232.06;5030688;28;105139;-73
2023/10/05 03:51:29;;;;;;;4.40;4.00;;;;;;;7.64;100.00;97222.69;5031223;28;102401;-73
2023/10/05 03:53:56;;;;;;;4.23;3.83;;;;;;;7.63;100.00;97213.94;5031069;28;105451;-73
2023/10/05 03:56:27;;;;;;;3.73;3.43;;;;;;;7.69;100.00;97217.59;5030560;28;105130;-73
2023/10/05 03:58:54;;;;;;;4.57;3.80;;;;;;;7.71;100.00;97215.53;5032334;28;101804;-74
2023/10/05 04:01:23;;;;;;;3.80;3.50;;;;;;;7.69;100.00;97222.88;5031209;28;105339;-74
2023/10/05 04:03:50;;;;;;;5.00;3.73;;;;;;;7.63;100.00;97216.59;5033612;28;101833;-74
2023/10/05 04:06:20;;;;;;;4.07;3.67;;;;;;;7.74;100.00;97225.72;5030855;28;105295;-74
2023/10/05 04:08:54;;;;;;;4.37;3.57;;;;;;;7.75;100.00;97222.81;5030302;28;105126;-74
2023/10/05 04:11:21;;;;;;;4.13;3.73;;;;;;;7.68;100.00;97229.22;5030773;28;101854;-75
2023/10/05 04:13:50;;;;;;;4.17;3.77;;;;;;;7.71;100.00;97232.25;5030927;28;104957;-76
2023/10/05 04:16:24;;;;;;;4.43;4.03;;;;;;;7.75;100.00;97230.75;5030085;28;104565;-76
2023/10/05 04:18:51;;;;;;;4.07;3.50;;;;;;;7.76;100.00;97218.34;5030665;28;101906;-76
2023/10/05 04:21:19;;;;;;;4.47;3.90;;;;;;;7.88;100.00;97217.47;5030552;28;104942;-76
2023/10/05 04:23:49;;;;;;;4.97;4.40;;;;;;;7.92;100.00;97209.91;5033563;28;105819;-76
2023/10/05 04:26:18;;;;;;;4.83;4.17;;;;;;;7.89;100.00;97211.16;5030750;28;104309;-76
2023/10/05 04:28:52;;;;;;;4.30;3.90;;;;;;;7.77;100.00;97218.16;5030045;28;105467;-76
2023/10/05 04:31:22;;;;;;;4.37;3.13;;;;;;;7.70;100.00;97221.84;5029825;28;102264;-72
2023/10/05 04:33:51;;;;;;;3.60;3.30;;;;;;;7.55;100.00;97224.78;5032581;27;102704;-73
2023/10/05 04:36:19;;;;;;;3.73;3.23;;;;;;;7.58;100.00;97226.19;5030996;28;105563;-74
2023/10/05 04:38:48;;;;;;;3.87;3.53;;;;;;;7.63;100.00;97213.16;5031398;28;101883;-74
2023/10/05 04:41:19;;;;;;;4.00;3.60;;;;;;;7.73;100.00;97208.16;5031474;28;105383;-74
2023/10/05 04:43:48;;;;;;;5.83;3.80;;;;;;;7.90;100.00;97212.75;5030888;28;105506;-75
2023/10/05 04:46:17;;;;;;;4.73;4.33;;;;;;;7.99;100.00;97218.59;5034737;28;102046;-75
2023/10/05 04:48:55;;;;;;;4.67;4.13;;;;;;;7.98;100.00;97211.69;5030649;28;105204;-75
2023/10/05 04:51:23;;;;;;;5.03;3.70;;;;;;;7.97;100.00;97210.06;5032805;27;101741;-75
2023/10/05 04:53:54;;;;;;;4.43;3.70;;;;;;;7.95;100.00;97201.50;5030924;28;105303;-78
2023/10/05 04:56:34;;;;;;;4.23;3.83;;;;;;;7.86;100.00;97197.53;5029899;27;105243;-74
2023/10/05 05:02:00;;;;;;;4.17;3.67;;;;;;;7.69;100.00;97196.41;5030897;28;104893;-74
2023/10/05 05:04:41;;;;;;;5.07;3.90;;;;;;;7.41;100.00;97190.66;5031412;27;102676;-74
2023/10/05 05:07:09;;;;;;;4.00;3.60;;;;;;;7.44;100.00;97203.44;5030113;28;102285;-74
2023/10/05 05:09:40;;;;;;;4.10;3.70;;;;;;;7.33;100.00;97202.28;5033398;28;105276;-74
2023/10/05 05:12:09;;;;;;;3.83;3.50;;;;;;;7.32;100.00;97199.84;5030884;28;101801;-74
2023/10/05 05:14:41;;;;;;;3.87;3.57;;;;;;;7.27;100.00;97199.66;5031941;28;102998;-74
2023/10/05 05:17:10;;;;;;;4.40;3.53;;;;;;;7.32;100.00;97210.44;5030069;28;105630;-74
2023/10/05 05:19:38;;;;;;;3.80;3.23;;;;;;;7.33;100.00;97212.03;5031686;27;101800;-74
2023/10/05 05:22:06;;;;;;;3.70;3.40;;;;;;;7.27;100.00;97212.88;5032237;28;102597;-74
2023/10/05 05:24:33;;;;;;;4.87;4.00;;;;;;;7.42;100.00;97213.44;5030239;28;105367;-74
2023/10/05 05:27:03;;;;;;;4.83;3.70;;;;;;;7.45;100.00;97210.34;5030638;28;101681;-74
2023/10/05 05:29:32;;;;;;;4.40;3.53;;;;;;;7.49;100.00;97216.88;5030573;28;103745;-74
2023/10/05 05:32:06;;;;;;;4.17;3.77;;;;;;;7.53;100.00;97218.06;5033280;28;105350;-74
2023/10/05 05:34:32;;;;;;;5.13;4.03;;;;;;;7.52;100.00;97221.75;5013706;28;105107;-74
2023/10/05 05:36:59;;;;;;;4.00;3.57;;;;;;;7.62;100.00;97211.50;5029709;28;105494;-74
2023/10/05 05:39:26;;;;;;;4.23;3.83;;;;;;;7.69;100.00;97223.69;5031565;28;101907;-74
2023/10/05 05:41:59;;;;;;;6.10;4.00;;;;;;;7.68;100.00;97218.63;5030341;28;105189;-74
2023/10/05 05:44:28;;;;;;;5.77;4.10;;;;;;;7.74;100.00;97213.25;5029641;28;105416;-74
2023/10/05 05:46:59;;;;;;;4.40;3.73;;;;;;;7.82;100.00;97210.38;5031408;27;101788;-74
2023/10/05 05:49:29;;;;;;;4.77;3.60;;;;;;;7.86;100.00;97210.75;5030200;28;104940;-74
2023/10/05 05:51:58;;;;;;;5.10;3.90;;;;;;;7.78;100.00;97209.16;5029685;28;105237;-74
2023/10/05 05:54:29;;;;;;;3.63;3.33;;;;;;;7.81;100.00;97211.38;5033799;28;101944;-74
2023/10/05 05:56:57;;;;;;;3.17;2.90;;;;;;;7.85;100.00;97217.09;5030125;28;104462;-74
2023/10/05 05:59:24;;;;;;;3.70;3.33;;;;;;;7.83;100.00;97222.59;5013388;28;101927;-74
2023/10/05 06:01:53;;;;;;;3.67;3.37;;;;;;;7.76;100.00;97219.19;5030053;28;105494;-74
2023/10/05 06:04:21;;;;;;;7.43;3.83;;;;;;;7.72;100.00;97212.69;5029186;28;105271;-74
2023/10/05 06:06:48;;;;;;;4.40;3.50;;;;;;;7.86;100.00;97219.50;5028578;28;101893;-74
2023/10/05 06:09:19;;;;;;;4.93;3.73;;;;;;;7.97;100.00;97225.97;5029459;28;105651;-74
2023/10/05 06:11:48;;;;;;;5.70;4.30;;;;;;;8.03;100.00;97228.59;5029382;28;104965;-74
2023/10/05 06:14:17;;;;;;;7.67;4.03;;;;;;;8.14;100.00;97235.84;5033458;28;101877;-74
2023/10/05 06:16:43;;;;;;;10.17;4.70;;;;;;;8.30;100.00;97234.53;5029441;28;105625;-74
2023/10/05 06:19:12;;;;;;;4.43;3.87;;;;;;;8.48;100.00;97234.59;5029787;28;101997;-74
2023/10/05 06:21:39;;;;;;;5.67;3.60;;;;;;;8.69;100.00;97232.38;5029888;28;103722;-75
2023/10/05 06:24:07;;;;;;;5.80;4.37;;;;;;;8.81;100.00;97235.94;5030568;28;102797;-80
2023/10/05 06:26:34;;;;;;;5.07;4.40;;;;;;;8.98;100.00;97242.28;5029703;28;102035;-78
2023/10/05 06:29:01;;;;;;;6.40;4.53;;;;;;;9.04;100.00;97240.56;5029955;28;105655;-78
2023/10/05 06:31:28;;;;;;;5.87;3.93;;;;;;;9.20;100.00;97243.47;5028585;28;102828;-79
2023/10/05 06:33:56;;;;;;;8.97;4.07;;;;;;;9.35;100.00;97238.63;5030350;27;102129;-80
2023/10/05 06:36:24;;;;;;;5.70;4.33;;;;;;;9.41;100.00;97237.72;5029767;28;105670;-81
2023/10/05 06:38:52;;;;;;;6.37;4.60;;;;;;;9.53;100.00;97245.75;5029266;28;102313;-81
2023/10/05 06:41:22;;;;;;;5.23;4.30;;;;;;;9.69;100.00;97242.47;5029282;28;105114;-81
2023/10/05 06:43:50;;;;;;;6.87;4.63;;;;;;;9.81;100.00;97238.84;5029893;28;102856;-74
2023/10/05 06:46:20;;;;;;;8.83;5.13;;;;;;;10.52;100.00;97241.53;5030369;28;101853;-73
2023/10/05 06:49:31;;;;;;;7.90;5.80;;;;;;;11.02;100.00;97248.84;5028398;28;105408;-73
2023/10/05 06:51:59;;;;;;;11.60;6.60;;;;;;;11.42;100.00;97249.72;5025039;28;105516;-74
2023/10/05 06:54:26;;;;;;;12.80;6.20;;;;;;;11.54;100.00;97236.38;5042781;27;102138;-75
2023/10/05 06:56:53;;;;;;;12.03;6.60;;;;;;;11.79;100.00;97243.06;5009092;28;105331;-74
2023/10/05 06:59:21;;;;;;;9.10;5.90;;;;;;;11.35;100.00;97237.59;5011832;28;105595;-74
2023/10/05 07:01:47;;;;;;;14.70;5.90;;;;;;;11.95;100.00;97246.84;5009237;28;105511;-74
2023/10/05 07:04:18;;;;;;;9.77;5.40;;;;;;;11.70;100.00;97239.16;5008278;27;105174;-73
2023/10/05 07:10:03;;;;;;;5.30;4.80;;;;;;;11.12;100.00;97233.09;4950641;22;103568;-73
2023/10/05 07:12:30;;;;;;;6.07;4.60;;;;;;;10.93;100.00;97238.78;4945763;28;105199;-74
2023/10/05 07:15:00;;;;;;;9.03;5.17;;;;;;;11.55;100.00;97233.47;4948485;28;102313;-73
2023/10/05 07:17:31;;;;;;;9.20;5.13;;;;;;;11.55;100.00;97248.69;4949593;28;102650;-73
2023/10/05 07:19:58;;;;;;;14.53;5.30;;;;;;;11.40;100.00;97245.69;4950616;28;105775;-73
2023/10/05 07:22:29;;;;;;;10.47;4.73;;;;;;;11.81;100.00;97248.97;4956713;28;101807;-73
2023/10/05 07:25:01;;;;;;;8.07;5.13;;;;;;;11.61;100.00;97245.09;4951048;28;105522;-73
2023/10/05 07:27:36;;;;;;;5.27;4.20;;;;;;;12.15;100.00;97234.69;4951591;28;101920;-72
2023/10/05 07:30:08;;;;;;;4.10;3.70;;;;;;;12.16;100.00;97238.16;4951608;28;104239;-73
2023/10/05 07:32:35;;;;;;;5.87;4.47;;;;;;;12.51;100.00;97233.44;4952958;28;103125;-73
2023/10/05 07:35:02;;;;;;;4.20;3.80;;;;;;;12.81;100.00;97228.59;4952022;28;101900;-73
2023/10/05 07:37:30;;;;;;;11.33;5.30;;;;;;;13.29;100.00;97232.25;4951790;28;105264;-74
2023/10/05 07:39:58;;;;;;;6.10;4.30;;;;;;;13.20;100.00;97230.28;4952628;28;103046;-73
2023/10/05 07:42:26;;;;;;;4.80;4.30;;;;;;;13.08;100.00;97232.25;4953210;28;101883;-72
2023/10/05 07:44:52;;;;;;;6.67;4.00;;;;;;;12.99;100.00;97231.03;4954541;28;105180;-74
2023/10/05 07:47:20;;;;;;;5.00;4.00;;;;;;;13.18;100.00;97229.69;4951153;28;102172;-72
2023/10/05 07:49:47;;;;;;;7.27;4.60;;;;;;;13.34;100.00;97228.84;4951861;28;105777;-72
2023/10/05 07:52:16;;;;;;;7.63;4.30;;;;;;;13.62;100.00;97234.03;4951989;28;105520;-72
2023/10/05 07:54:43;;;;;;;9.03;3.87;;;;;;;13.80;100.00;97239.84;4952853;28;101893;-72
2023/10/05 07:57:13;;;;;;;8.03;4.60;;;;;;;14.12;100.00;97242.63;4952777;28;105403;-72
2023/10/05 07:59:41;;;;;;;7.30;4.40;;;;;;;14.04;100.00;97235.03;4953162;28;103008;-72
2023/10/05 08:02:10;;;;;;;8.57;4.30;;;;;;;14.06;100.00;97239.09;4952352;28;102033;-72
2023/10/05 08:04:37;;;;;;;7.17;4.53;;;;;;;14.14;100.00;97240.50;4952417;28;105348;-72
2023/10/05 08:07:05;;;;;;;8.63;4.00;;;;;;;14.46;100.00;97238.72;4955230;28;105875;-72
2023/10/05 08:09:32;;;;;;;4.67;4.10;;;;;;;14.06;100.00;97232.94;4952210;28;105531;-72
2023/10/05 08:11:59;;;;;;;5.23;4.20;;;;;;;14.11;100.00;97233.00;4951817;28;105837;-72
2023/10/05 08:14:28;;;;;;;6.30;3.60;;;;;;;14.17;100.00;97232.00;4952232;28;101963;-72
2023/10/05 08:16:55;;;;;;;7.73;4.13;;;;;;;13.84;100.00;97229.50;4952296;28;104031;-72
2023/10/05 08:19:24;;;;;;;7.93;3.80;;;;;;;13.92;100.00;97243.22;4951743;28;105960;-72
2023/10/05 08:21:53;;;;;;;6.23;3.93;;;;;;;14.00;100.00;97241.97;4952080;28;102281;-73
2023/10/05 08:24:20;;;;;;;7.07;3.93;;;;;;;14.27;100.00;97242.81;4953387;28;101997;-72
2023/10/05 08:26:49;;;;;;;6.23;3.83;;;;;;;14.50;100.00;97245.19;4956264;28;102930;-72
2023/10/05 08:29:22;;;;;;;5.10;3.77;;;;;;;14.37;100.00;97248.25;4952265;28;105748;-72
2023/10/05 08:31:51;;;;;;;9.10;4.83;;;;;;;14.96;100.00;97249.84;4950700;28;105566;-73
2023/10/05 08:34:20;;;;;;;7.53;4.10;;;;;;;15.20;100.00;97246.53;4951852;28;101842;-73
2023/10/05 08:36:49;;;;;;;3.80;3.30;;;;;;;15.31;100.00;97242.06;4951945;28;104257;-73
2023/10/05 08:39:21;;;;;;;7.03;3.40;;;;;;;15.80;100.00;97240.72;4951441;28;105731;-73
2023/10/05 08:41:49;;;;;;;6.97;3.67;;;;;;;15.27;100.00;97246.31;4952018;28;101881;-72
2023/10/05 08:44:26;;;;;;;4.73;3.93;;;;;;;14.91;100.00;97239.91;4951987;28;103955;-72
2023/10/05 08:46:58;;;;;;;5.97;3.50;;;;;;;15.77;100.00;97234.00;4951294;28;105618;-72
2023/10/05 08:49:26;;;;;;;4.57;3.53;;;;;;;15.97;100.00;97239.44;4955244;28;101812;-73
2023/10/05 08:51:53;;;;;;;6.23;3.83;;;;;;;16.23;100.00;97241.13;4951387;28;105136;-73
2023/10/05 08:54:27;;;;;;;5.37;3.77;;;;;;;15.19;100.00;97239.56;4951710;28;102030;-73
2023/10/05 08:56:57;;;;;;;5.30;3.57;;;;;;;15.43;100.00;97245.38;4952759;28;104766;-73
2023/10/05 08:59:26;;;;;;;5.13;3.30;;;;;;;16.40;100.00;97243.63;4951108;28;106598;-73
2023/10/05 09:01:59;;;;;;;10.17;4.03;;;;;;;17.06;100.00;97239.88;4951626;28;102003;-73
2023/10/05 09:04:43;;;;;;;5.53;3.87;;;;;;;16.63;100.00;97248.47;4951598;28;105293;-73
2023/10/05 09:07:11;;;;;;;5.70;3.80;;;;;;;17.18;100.00;97237.72;4950878;28;105863;-73
2023/10/05 09:09:52;;;;;;;6.47;4.30;;;;;;;16.67;100.00;97252.25;4951277;28;102049;-72
2023/10/05 09:12:26;;;;;;;4.50;3.93;;;;;;;16.51;100.00;97243.34;4954281;28;105351;-73
2023/10/05 09:15:05;;;;;;;5.93;3.43;;;;;;;17.08;100.00;97241.22;4951445;28;101822;-73
2023/10/05 09:17:35;;;;;;;6.13;3.73;;;;;;;16.82;100.00;97250.38;4951596;28;105698;-73
2023/10/05 09:20:22;;;;;;;6.73;3.40;;;;;;;16.40;100.00;97246.31;4950764;28;106723;-73
2023/10/05 09:22:50;;;;;;;7.13;3.30;;;;;;;16.71;100.00;97247.94;4951535;28;101871;-74
2023/10/05 09:25:26;;;;;;;6.53;3.63;;;;;;;17.11;100.00;97248.72;4951411;28;104035;-73
2023/10/05 09:27:54;;;;;;;4.97;3.57;;;;;;;17.23;100.00;97254.63;4950786;28;104691;-72
2023/10/05 09:30:22;;;;;;;5.57;3.50;;;;;;;16.53;100.00;97251.16;4951166;28;102040;-73
2023/10/05 09:33:07;;;;;;;5.70;3.27;;;;;;;16.79;100.00;97258.16;4952521;28;102677;-72
2023/10/05 09:35:34;;;;;;;6.13;3.53;;;;;;;16.78;100.00;97264.59;4953071;28;104992;-73
2023/10/05 09:38:01;;;;;;;5.10;3.20;;;;;;;16.76;100.00;97264.06;4950998;28;105021;-72
2023/10/05 09:40:31;;;;;;;6.57;3.53;;;;;;;16.84;100.00;97263.53;4950519;28;105722;-72
2023/10/05 09:43:00;;;;;;;5.57;2.93;;;;;;;16.84;100.00;97258.16;4950987;28;101951;-72
2023/10/05 09:45:31;;;;;;;3.90;2.93;;;;;;;17.22;100.00;97252.22;4931010;28;105079;-72
2023/10/05 09:48:03;;;;;;;5.77;3.30;;;;;;;17.53;100.00;97238.47;4929316;28;105696;-72
2023/10/05 09:50:32;;;;;;;4.63;3.20;;;;;;;17.49;100.00;97241.97;4930923;28;101961;-72
2023/10/05 09:53:02;;;;;;;5.20;3.00;;;;;;;17.60;100.00;97243.56;4930948;28;105215;-72
2023/10/05 09:55:30;;;;;;;5.03;3.40;;;;;;;17.65;100.00;97254.31;4930296;28;104514;-72
2023/10/05 09:58:05;;;;;;;4.77;3.40;;;;;;;18.00;100.00;97240.72;4934249;28;102176;-72
2023/10/05 10:03:17;;;;;;;5.17;3.00;;;;;;;18.43;100.00;97234.59;4931904;28;102647;-72
2023/10/05 10:05:49;;;;;;;5.87;3.27;;;;;;;18.55;100.00;97227.78;4930946;28;105818;-73
2023/10/05 10:08:21;;;;;;;3.17;2.77;;;;;;;18.81;100.00;97234.56;4928968;28;105316;-75
2023/10/05 10:11:01;;;;;;;5.23;2.87;;;;;;;19.09;100.00;97238.38;4929781;28;101904;-74
2023/10/05 10:13:37;;;;;;;4.63;2.83;;;;;;;18.75;100.00;97235.69;4932006;28;101917;-75
2023/10/05 10:16:16;;;;;;;5.97;3.07;;;;;;;19.29;100.00;97238.22;4928649;28;104653;-75
2023/10/05 10:18:46;;;;;;;5.93;3.60;;;;;;;19.31;100.00;97241.44;4931058;28;101791;-75
2023/10/05 10:21:24;;;;;;;5.37;3.10;;;;;;;19.50;100.00;97236.94;4925921;28;102877;-75
2023/10/05 10:24:00;;;;;;;5.43;3.10;;;;;;;19.72;100.00;97243.41;4929543;28;101894;-75
2023/10/05 10:26:28;;;;;;;3.67;2.70;;;;;;;19.65;100.00;97232.16;4929454;28;105451;-75
2023/10/05 10:28:59;;;;;;;4.60;2.93;;;;;;;19.90;100.00;97231.84;4928910;28;105017;-75
2023/10/05 10:31:31;;;;;;;3.57;2.67;;;;;;;19.86;100.00;97238.94;4929337;28;102449;-75
2023/10/05 10:34:11;;;;;;;4.60;2.87;;;;;;;19.84;100.00;97232.22;4929440;28;105031;-75
2023/10/05 10:36:56;;;;;;;4.20;2.70;;;;;;;19.35;100.00;97226.31;4928476;28;105284;-75
2023/10/05 10:39:24;;;;;;;3.80;2.70;;;;;;;19.27;100.00;97230.41;4930865;28;101892;-75
2023/10/05 10:42:04;;;;;;;4.20;2.87;;;;;;;19.44;100.00;97224.56;4931747;28;104913;-75
2023/10/05 10:44:41;;;;;;;4.40;2.73;;;;;;;19.69;100.00;97205.41;4930611;28;101872;-73
2023/10/05 10:47:11;;;;;;;3.30;2.50;;;;;;;19.53;100.00;97214.75;4920861;28;105855;-75
2023/10/05 10:49:40;;;;;;;5.17;2.90;;;;;;;19.47;100.00;97211.34;4928584;28;105407;-74
2023/10/05 10:52:10;;;;;;;7.13;2.80;;;;;;;19.27;100.00;97221.50;4930189;28;101967;-74
2023/10/05 10:54:42;;;;;;;4.37;2.50;;;;;;;19.18;100.00;97209.72;4930085;28;105724;-74
2023/10/05 10:57:11;;;;;;;3.00;2.67;;;;;;;18.76;100.00;97201.47;4933227;28;102768;-74
2023/10/05 10:59:41;;;;;;;9.70;3.23;;;;;;;19.39;100.00;97200.34;4929338;28;101859;-74
2023/10/05 11:02:12;;;;;;;4.47;2.60;;;;;;;20.02;100.00;97205.25;4937895;28;105128;-74
2023/10/05 11:04:40;;;;;;;4.50;2.60;;;;;;;20.22;100.00;97207.69;4936092;28;105321;-74
2023/10/05 11:07:07;;;;;;;3.00;2.50;;;;;;;20.11;100.00;97198.13;4933415;28;105038;-74
2023/10/05 11:09:35;;;;;;;6.30;2.67;;;;;;;20.83;100.00;97189.50;4932433;28;105585;-74
2023/10/05 11:12:10;;;;;;;3.43;2.70;;;;;;;20.92;100.00;97186.94;4934604;28;102033;-74
2023/10/05 11:14:38;;;;;;;6.80;2.97;;;;;;;21.03;100.00;97180.25;4933142;28;104116;-74
2023/10/05 11:17:11;;;;;;;3.17;2.47;;;;;;;19.92;100.00;97180.28;4932723;28;104882;-74
2023/10/05 11:19:43;;;;;;;4.87;2.77;;;;;;;19.52;100.00;97178.09;4933538;28;101908;-74
2023/10/05 11:22:12;;;;;;;2.73;2.40;;;;;;;19.04;100.00;97177.22;4933283;28;103868;-73
2023/10/05 11:25:14;;;;;;;2.97;2.40;;;;;;;18.65;100.00;97183.78;4932729;28;105733;-74
2023/10/05 11:27:44;;;;;;;3.37;2.57;;;;;;;19.14;100.00;97181.72;4927737;28;101947;-73
2023/10/05 11:30:18;;;;;;;4.57;2.80;;;;;;;19.64;100.00;97182.00;4926544;28;105079;-73
2023/10/05 11:32:54;;;;;;;4.50;2.77;;;;;;;20.30;100.00;97168.44;4928043;28;101833;-73
2023/10/05 11:35:29;;;;;;;3.00;2.40;;;;;;;20.89;100.00;97165.88;4926032;28;105308;-73
2023/10/05 11:38:03;;;;;;;4.63;2.47;;;;;;;20.87;100.00;97157.25;4930318;28;104430;-73
2023/10/05 11:40:34;;;;;;;3.73;2.40;;;;;;;19.84;100.00;97153.94;4934835;28;102383;-73
2023/10/05 11:43:06;;;;;;;4.60;2.60;;;;;;;20.62;100.00;97142.25;4931783;28;105482;-73
2023/10/05 16:07:17;;;;;;;6.77;2.53;;;;;;;17.97;100.00;97208.94;6107476;22;1719694;-73
2023/10/05 16:09:44;;;;;;;8.83;2.73;;;;;;;17.89;100.00;97212.25;6086462;23;103359;-73
2023/10/05 16:12:11;;;;;;;5.53;2.50;;;;;;;17.73;100.00;97224.97;6086242;23;105437;-73